sensor_id;sensor_type;location;lat;lon;timestamp;P1;durP1;ratioP1;P2;durP2;ratioP2
25391;SDS011;13329;48.402;11.718;2023-05-16T00:00:47;6.80;;;3.95;;
25391;SDS011;13329;48.402;11.718;2023-05-16T00:03:12;6.32;;;4.25;;
25391;SDS011;13329;48.402;11.718;2023-05-16T00:05:38;6.90;;;4.00;;
25391;SDS011;13329;48.402;11.718;2023-05-16T00:08:04;5.60;;;3.55;;
25391;SDS011;13329;48.402;11.718;2023-05-16T00:10:29;7.07;;;3.65;;
25391;SDS011;13329;48.402;11.718;2023-05-16T00:12:54;5.60;;;3.55;;
25391;SDS011;13329;48.402;11.718;2023-05-16T00:15:20;6.05;;;3.50;;
25391;SDS011;13329;48.402;11.718;2023-05-16T00:17:47;5.82;;;3.85;;
25391;SDS011;13329;48.402;11.718;2023-05-16T00:20:13;5.40;;;3.42;;
25391;SDS011;13329;48.402;11.718;2023-05-16T00:22:41;6.80;;;3.50;;
25391;SDS011;13329;48.402;11.718;2023-05-16T00:25:06;7.13;;;3.70;;
25391;SDS011;13329;48.402;11.718;2023-05-16T00:27:33;7.40;;;3.25;;
25391;SDS011;13329;48.402;11.718;2023-05-16T00:29:58;8.80;;;4.13;;
25391;SDS011;13329;48.402;11.718;2023-05-16T00:32:23;6.33;;;3.63;;
25391;SDS011;13329;48.402;11.718;2023-05-16T00:34:49;18.60;;;6.20;;
25391;SDS011;13329;48.402;11.718;2023-05-16T00:37:14;17.83;;;5.93;;
25391;SDS011;13329;48.402;11.718;2023-05-16T00:39:39;14.47;;;5.47;;
25391;SDS011;13329;48.402;11.718;2023-05-16T00:42:05;14.05;;;5.03;;
25391;SDS011;13329;48.402;11.718;2023-05-16T00:44:31;14.95;;;5.63;;
25391;SDS011;13329;48.402;11.718;2023-05-16T00:46:56;10.07;;;4.18;;
25391;SDS011;13329;48.402;11.718;2023-05-16T00:49:22;8.30;;;3.53;;
25391;SDS011;13329;48.402;11.718;2023-05-16T00:51:47;6.88;;;3.72;;
25391;SDS011;13329;48.402;11.718;2023-05-16T00:54:12;6.53;;;3.83;;
25391;SDS011;13329;48.402;11.718;2023-05-16T00:56:38;7.10;;;3.88;;
25391;SDS011;13329;48.402;11.718;2023-05-16T00:59:03;6.30;;;3.60;;
25391;SDS011;13329;48.402;11.718;2023-05-16T01:01:29;9.57;;;4.22;;
25391;SDS011;13329;48.402;11.718;2023-05-16T01:03:54;7.87;;;3.60;;
25391;SDS011;13329;48.402;11.718;2023-05-16T01:06:20;9.45;;;4.38;;
25391;SDS011;13329;48.402;11.718;2023-05-16T01:08:45;7.17;;;4.30;;
25391;SDS011;13329;48.402;11.718;2023-05-16T01:13:59;5.72;;;3.67;;
25391;SDS011;13329;48.402;11.718;2023-05-16T01:18:58;9.35;;;4.38;;
25391;SDS011;13329;48.402;11.718;2023-05-16T01:21:36;9.18;;;4.70;;
25391;SDS011;13329;48.402;11.718;2023-05-16T01:26:28;8.30;;;4.38;;
25391;SDS011;13329;48.402;11.718;2023-05-16T01:28:54;7.97;;;4.68;;
25391;SDS011;13329;48.402;11.718;2023-05-16T01:31:20;6.07;;;4.38;;
25391;SDS011;13329;48.402;11.718;2023-05-16T01:33:45;7.35;;;4.20;;
25391;SDS011;13329;48.402;11.718;2023-05-16T01:41:42;6.20;;;4.20;;
25391;SDS011;13329;48.402;11.718;2023-05-16T01:44:20;9.27;;;5.07;;
25391;SDS011;13329;48.402;11.718;2023-05-16T01:46:47;8.48;;;5.03;;
25391;SDS011;13329;48.402;11.718;2023-05-16T01:49:19;8.43;;;4.65;;
25391;SDS011;13329;48.402;11.718;2023-05-16T01:51:50;12.20;;;4.70;;
25391;SDS011;13329;48.402;11.718;2023-05-16T01:54:17;8.73;;;5.28;;
25391;SDS011;13329;48.402;11.718;2023-05-16T01:56:43;8.52;;;4.40;;
25391;SDS011;13329;48.402;11.718;2023-05-16T01:59:12;8.93;;;4.78;;
25391;SDS011;13329;48.402;11.718;2023-05-16T02:01:38;7.72;;;4.88;;
25391;SDS011;13329;48.402;11.718;2023-05-16T02:04:03;9.23;;;5.33;;
25391;SDS011;13329;48.402;11.718;2023-05-16T02:06:28;8.90;;;5.33;;
25391;SDS011;13329;48.402;11.718;2023-05-16T02:08:54;8.85;;;5.10;;
25391;SDS011;13329;48.402;11.718;2023-05-16T02:11:19;9.35;;;5.50;;
25391;SDS011;13329;48.402;11.718;2023-05-16T02:13:46;9.07;;;5.47;;
25391;SDS011;13329;48.402;11.718;2023-05-16T02:16:11;10.10;;;5.13;;
25391;SDS011;13329;48.402;11.718;2023-05-16T02:18:36;9.93;;;5.45;;
25391;SDS011;13329;48.402;11.718;2023-05-16T02:21:02;10.32;;;5.22;;
25391;SDS011;13329;48.402;11.718;2023-05-16T02:23:27;9.43;;;5.43;;
25391;SDS011;13329;48.402;11.718;2023-05-16T02:25:53;9.23;;;4.85;;
25391;SDS011;13329;48.402;11.718;2023-05-16T02:28:18;7.07;;;4.47;;
25391;SDS011;13329;48.402;11.718;2023-05-16T02:30:43;8.80;;;5.15;;
25391;SDS011;13329;48.402;11.718;2023-05-16T02:33:08;8.53;;;5.23;;
25391;SDS011;13329;48.402;11.718;2023-05-16T02:35:34;8.07;;;4.90;;
25391;SDS011;13329;48.402;11.718;2023-05-16T02:37:59;9.00;;;5.03;;
25391;SDS011;13329;48.402;11.718;2023-05-16T02:40:24;9.25;;;5.05;;
25391;SDS011;13329;48.402;11.718;2023-05-16T02:42:50;8.83;;;5.33;;
25391;SDS011;13329;48.402;11.718;2023-05-16T02:45:15;8.23;;;4.97;;
25391;SDS011;13329;48.402;11.718;2023-05-16T02:47:40;10.83;;;5.00;;
25391;SDS011;13329;48.402;11.718;2023-05-16T02:50:05;13.07;;;5.45;;
25391;SDS011;13329;48.402;11.718;2023-05-16T02:52:31;10.75;;;5.82;;
25391;SDS011;13329;48.402;11.718;2023-05-16T02:54:56;8.43;;;5.37;;
25391;SDS011;13329;48.402;11.718;2023-05-16T02:57:21;10.57;;;6.20;;
25391;SDS011;13329;48.402;11.718;2023-05-16T02:59:46;10.80;;;5.97;;
25391;SDS011;13329;48.402;11.718;2023-05-16T03:02:11;9.30;;;5.57;;
25391;SDS011;13329;48.402;11.718;2023-05-16T03:04:36;12.37;;;6.03;;
25391;SDS011;13329;48.402;11.718;2023-05-16T03:07:02;8.87;;;5.27;;
25391;SDS011;13329;48.402;11.718;2023-05-16T03:09:27;9.57;;;5.57;;
25391;SDS011;13329;48.402;11.718;2023-05-16T03:11:52;10.30;;;5.70;;
25391;SDS011;13329;48.402;11.718;2023-05-16T03:14:17;12.50;;;6.18;;
25391;SDS011;13329;48.402;11.718;2023-05-16T03:16:42;10.65;;;5.85;;
25391;SDS011;13329;48.402;11.718;2023-05-16T03:19:08;12.27;;;6.32;;
25391;SDS011;13329;48.402;11.718;2023-05-16T03:21:33;13.95;;;6.47;;
25391;SDS011;13329;48.402;11.718;2023-05-16T03:23:59;11.23;;;6.17;;
25391;SDS011;13329;48.402;11.718;2023-05-16T03:26:24;9.85;;;5.68;;
25391;SDS011;13329;48.402;11.718;2023-05-16T03:28:49;13.00;;;6.07;;
25391;SDS011;13329;48.402;11.718;2023-05-16T03:31:15;11.88;;;5.63;;
25391;SDS011;13329;48.402;11.718;2023-05-16T03:33:40;10.60;;;5.55;;
25391;SDS011;13329;48.402;11.718;2023-05-16T03:36:06;10.65;;;5.70;;
25391;SDS011;13329;48.402;11.718;2023-05-16T03:38:31;11.70;;;6.03;;
25391;SDS011;13329;48.402;11.718;2023-05-16T03:40:56;12.43;;;5.50;;
25391;SDS011;13329;48.402;11.718;2023-05-16T03:43:21;9.27;;;5.13;;
25391;SDS011;13329;48.402;11.718;2023-05-16T03:45:47;11.70;;;5.40;;
25391;SDS011;13329;48.402;11.718;2023-05-16T03:48:12;11.23;;;5.70;;
25391;SDS011;13329;48.402;11.718;2023-05-16T03:50:37;11.38;;;5.72;;
25391;SDS011;13329;48.402;11.718;2023-05-16T03:53:03;10.00;;;5.68;;
25391;SDS011;13329;48.402;11.718;2023-05-16T03:55:28;11.77;;;6.00;;
25391;SDS011;13329;48.402;11.718;2023-05-16T03:57:54;10.35;;;6.57;;
25391;SDS011;13329;48.402;11.718;2023-05-16T04:00:20;11.43;;;6.37;;
25391;SDS011;13329;48.402;11.718;2023-05-16T04:02:45;9.18;;;5.93;;
25391;SDS011;13329;48.402;11.718;2023-05-16T04:05:10;13.13;;;6.67;;
25391;SDS011;13329;48.402;11.718;2023-05-16T04:07:36;12.88;;;6.60;;
25391;SDS011;13329;48.402;11.718;2023-05-16T04:10:02;10.20;;;6.18;;
25391;SDS011;13329;48.402;11.718;2023-05-16T04:12:27;11.85;;;6.25;;
25391;SDS011;13329;48.402;11.718;2023-05-16T04:14:52;13.03;;;6.70;;
25391;SDS011;13329;48.402;11.718;2023-05-16T04:17:17;14.10;;;7.23;;
25391;SDS011;13329;48.402;11.718;2023-05-16T04:19:43;12.37;;;6.40;;
25391;SDS011;13329;48.402;11.718;2023-05-16T04:22:08;13.97;;;6.80;;
25391;SDS011;13329;48.402;11.718;2023-05-16T04:24:33;11.57;;;6.47;;
25391;SDS011;13329;48.402;11.718;2023-05-16T04:26:58;11.40;;;5.93;;
25391;SDS011;13329;48.402;11.718;2023-05-16T04:29:23;11.57;;;6.20;;
25391;SDS011;13329;48.402;11.718;2023-05-16T04:31:49;11.13;;;5.80;;
25391;SDS011;13329;48.402;11.718;2023-05-16T04:34:14;12.93;;;6.60;;
25391;SDS011;13329;48.402;11.718;2023-05-16T04:36:40;13.50;;;5.97;;
25391;SDS011;13329;48.402;11.718;2023-05-16T04:39:05;11.00;;;6.57;;
25391;SDS011;13329;48.402;11.718;2023-05-16T04:41:31;10.63;;;5.85;;
25391;SDS011;13329;48.402;11.718;2023-05-16T04:43:57;11.20;;;6.20;;
25391;SDS011;13329;48.402;11.718;2023-05-16T04:46:22;11.33;;;6.10;;
25391;SDS011;13329;48.402;11.718;2023-05-16T04:48:48;13.43;;;6.53;;
25391;SDS011;13329;48.402;11.718;2023-05-16T04:51:13;12.60;;;7.13;;
25391;SDS011;13329;48.402;11.718;2023-05-16T04:53:38;12.30;;;6.43;;
25391;SDS011;13329;48.402;11.718;2023-05-16T04:56:03;11.90;;;6.47;;
25391;SDS011;13329;48.402;11.718;2023-05-16T04:58:29;11.15;;;6.32;;
25391;SDS011;13329;48.402;11.718;2023-05-16T05:00:55;10.88;;;6.53;;
25391;SDS011;13329;48.402;11.718;2023-05-16T05:03:20;12.25;;;6.53;;
25391;SDS011;13329;48.402;11.718;2023-05-16T05:05:45;12.80;;;6.77;;
25391;SDS011;13329;48.402;11.718;2023-05-16T05:08:11;12.25;;;7.07;;
25391;SDS011;13329;48.402;11.718;2023-05-16T05:10:36;14.53;;;7.77;;
25391;SDS011;13329;48.402;11.718;2023-05-16T05:13:02;12.47;;;7.23;;
25391;SDS011;13329;48.402;11.718;2023-05-16T05:15:27;12.77;;;6.77;;
25391;SDS011;13329;48.402;11.718;2023-05-16T05:17:52;12.82;;;7.03;;
25391;SDS011;13329;48.402;11.718;2023-05-16T05:20:17;14.43;;;7.40;;
25391;SDS011;13329;48.402;11.718;2023-05-16T05:22:42;12.20;;;6.43;;
25391;SDS011;13329;48.402;11.718;2023-05-16T05:25:08;11.27;;;5.97;;
25391;SDS011;13329;48.402;11.718;2023-05-16T05:27:33;11.90;;;7.03;;
25391;SDS011;13329;48.402;11.718;2023-05-16T05:29:58;13.37;;;6.93;;
25391;SDS011;13329;48.402;11.718;2023-05-16T05:32:23;9.57;;;6.03;;
25391;SDS011;13329;48.402;11.718;2023-05-16T05:34:48;12.70;;;7.27;;
25391;SDS011;13329;48.402;11.718;2023-05-16T05:37:14;12.57;;;7.22;;
25391;SDS011;13329;48.402;11.718;2023-05-16T05:39:39;12.33;;;6.90;;
25391;SDS011;13329;48.402;11.718;2023-05-16T05:42:04;14.53;;;7.70;;
25391;SDS011;13329;48.402;11.718;2023-05-16T05:44:30;12.82;;;6.90;;
25391;SDS011;13329;48.402;11.718;2023-05-16T05:46:55;12.17;;;6.33;;
25391;SDS011;13329;48.402;11.718;2023-05-16T05:49:21;13.68;;;6.97;;
25391;SDS011;13329;48.402;11.718;2023-05-16T05:51:47;12.48;;;6.53;;
25391;SDS011;13329;48.402;11.718;2023-05-16T05:54:15;14.13;;;6.80;;
25391;SDS011;13329;48.402;11.718;2023-05-16T05:56:41;15.13;;;7.50;;
25391;SDS011;13329;48.402;11.718;2023-05-16T05:59:06;11.40;;;6.40;;
25391;SDS011;13329;48.402;11.718;2023-05-16T06:01:31;11.73;;;6.75;;
25391;SDS011;13329;48.402;11.718;2023-05-16T06:03:56;12.75;;;6.78;;
25391;SDS011;13329;48.402;11.718;2023-05-16T06:06:21;12.67;;;6.60;;
25391;SDS011;13329;48.402;11.718;2023-05-16T06:08:47;14.07;;;6.83;;
25391;SDS011;13329;48.402;11.718;2023-05-16T06:11:12;12.60;;;7.10;;
25391;SDS011;13329;48.402;11.718;2023-05-16T06:13:37;11.10;;;6.17;;
25391;SDS011;13329;48.402;11.718;2023-05-16T06:16:02;12.27;;;6.93;;
25391;SDS011;13329;48.402;11.718;2023-05-16T06:18:27;12.05;;;6.80;;
25391;SDS011;13329;48.402;11.718;2023-05-16T06:20:53;9.52;;;6.10;;
25391;SDS011;13329;48.402;11.718;2023-05-16T06:23:18;13.17;;;6.47;;
25391;SDS011;13329;48.402;11.718;2023-05-16T06:25:44;11.52;;;6.97;;
25391;SDS011;13329;48.402;11.718;2023-05-16T06:28:09;12.40;;;6.57;;
25391;SDS011;13329;48.402;11.718;2023-05-16T06:30:34;10.97;;;6.50;;
25391;SDS011;13329;48.402;11.718;2023-05-16T06:32:59;12.07;;;6.47;;
25391;SDS011;13329;48.402;11.718;2023-05-16T06:35:24;14.03;;;6.23;;
25391;SDS011;13329;48.402;11.718;2023-05-16T06:37:50;10.80;;;6.03;;
25391;SDS011;13329;48.402;11.718;2023-05-16T06:40:15;14.00;;;6.90;;
25391;SDS011;13329;48.402;11.718;2023-05-16T06:42:40;11.90;;;6.53;;
25391;SDS011;13329;48.402;11.718;2023-05-16T06:45:05;11.73;;;6.87;;
25391;SDS011;13329;48.402;11.718;2023-05-16T06:47:31;10.32;;;6.88;;
25391;SDS011;13329;48.402;11.718;2023-05-16T06:49:56;12.77;;;7.10;;
25391;SDS011;13329;48.402;11.718;2023-05-16T06:52:21;9.38;;;6.15;;
25391;SDS011;13329;48.402;11.718;2023-05-16T06:54:47;11.33;;;6.73;;
25391;SDS011;13329;48.402;11.718;2023-05-16T06:57:12;11.40;;;6.40;;
25391;SDS011;13329;48.402;11.718;2023-05-16T06:59:37;11.38;;;6.40;;
25391;SDS011;13329;48.402;11.718;2023-05-16T07:02:02;11.48;;;6.10;;
25391;SDS011;13329;48.402;11.718;2023-05-16T07:04:28;13.80;;;7.40;;
25391;SDS011;13329;48.402;11.718;2023-05-16T07:06:53;11.77;;;6.33;;
25391;SDS011;13329;48.402;11.718;2023-05-16T07:09:19;8.83;;;6.00;;
25391;SDS011;13329;48.402;11.718;2023-05-16T07:11:44;11.50;;;7.15;;
25391;SDS011;13329;48.402;11.718;2023-05-16T07:14:09;9.03;;;6.17;;
25391;SDS011;13329;48.402;11.718;2023-05-16T07:16:35;9.70;;;6.13;;
25391;SDS011;13329;48.402;11.718;2023-05-16T07:19:00;19.67;;;6.37;;
25391;SDS011;13329;48.402;11.718;2023-05-16T07:21:25;10.85;;;6.13;;
25391;SDS011;13329;48.402;11.718;2023-05-16T07:23:51;12.55;;;6.65;;
25391;SDS011;13329;48.402;11.718;2023-05-16T07:26:16;14.20;;;6.53;;
25391;SDS011;13329;48.402;11.718;2023-05-16T07:28:41;9.53;;;6.20;;
25391;SDS011;13329;48.402;11.718;2023-05-16T07:31:06;12.73;;;6.22;;
25391;SDS011;13329;48.402;11.718;2023-05-16T07:33:32;11.23;;;6.45;;
25391;SDS011;13329;48.402;11.718;2023-05-16T07:35:57;10.45;;;6.63;;
25391;SDS011;13329;48.402;11.718;2023-05-16T07:38:22;11.93;;;6.80;;
25391;SDS011;13329;48.402;11.718;2023-05-16T07:40:48;10.95;;;6.53;;
25391;SDS011;13329;48.402;11.718;2023-05-16T07:43:13;10.43;;;5.70;;
25391;SDS011;13329;48.402;11.718;2023-05-16T07:45:38;10.63;;;6.07;;
25391;SDS011;13329;48.402;11.718;2023-05-16T07:48:04;9.25;;;5.82;;
25391;SDS011;13329;48.402;11.718;2023-05-16T07:50:29;10.98;;;6.70;;
25391;SDS011;13329;48.402;11.718;2023-05-16T07:52:54;11.30;;;5.80;;
25391;SDS011;13329;48.402;11.718;2023-05-16T07:55:19;11.10;;;6.13;;
25391;SDS011;13329;48.402;11.718;2023-05-16T07:57:46;9.13;;;5.75;;
25391;SDS011;13329;48.402;11.718;2023-05-16T08:00:11;10.32;;;5.80;;
25391;SDS011;13329;48.402;11.718;2023-05-16T08:02:36;10.07;;;6.38;;
25391;SDS011;13329;48.402;11.718;2023-05-16T08:05:02;11.00;;;6.30;;
25391;SDS011;13329;48.402;11.718;2023-05-16T08:07:27;10.20;;;6.10;;
25391;SDS011;13329;48.402;11.718;2023-05-16T08:09:52;9.87;;;6.33;;
25391;SDS011;13329;48.402;11.718;2023-05-16T08:12:17;8.93;;;6.20;;
25391;SDS011;13329;48.402;11.718;2023-05-16T08:14:42;8.27;;;5.73;;
25391;SDS011;13329;48.402;11.718;2023-05-16T08:17:07;10.68;;;5.80;;
25391;SDS011;13329;48.402;11.718;2023-05-16T08:19:33;11.33;;;6.10;;
25391;SDS011;13329;48.402;11.718;2023-05-16T08:21:58;10.35;;;6.10;;
25391;SDS011;13329;48.402;11.718;2023-05-16T08:24:24;11.87;;;5.93;;
25391;SDS011;13329;48.402;11.718;2023-05-16T08:26:49;10.50;;;5.67;;
25391;SDS011;13329;48.402;11.718;2023-05-16T08:29:14;11.20;;;5.55;;
25391;SDS011;13329;48.402;11.718;2023-05-16T08:31:39;7.67;;;5.40;;
25391;SDS011;13329;48.402;11.718;2023-05-16T08:34:05;10.83;;;5.77;;
25391;SDS011;13329;48.402;11.718;2023-05-16T08:36:30;9.27;;;5.82;;
25391;SDS011;13329;48.402;11.718;2023-05-16T08:38:55;9.55;;;5.75;;
25391;SDS011;13329;48.402;11.718;2023-05-16T08:41:21;10.55;;;5.78;;
25391;SDS011;13329;48.402;11.718;2023-05-16T08:43:46;11.75;;;5.80;;
25391;SDS011;13329;48.402;11.718;2023-05-16T08:46:11;8.53;;;5.63;;
25391;SDS011;13329;48.402;11.718;2023-05-16T08:48:36;9.63;;;5.82;;
25391;SDS011;13329;48.402;11.718;2023-05-16T08:51:02;10.00;;;6.13;;
25391;SDS011;13329;48.402;11.718;2023-05-16T08:53:30;9.70;;;5.70;;
25391;SDS011;13329;48.402;11.718;2023-05-16T08:55:57;8.48;;;6.00;;
25391;SDS011;13329;48.402;11.718;2023-05-16T08:58:23;10.40;;;6.07;;
25391;SDS011;13329;48.402;11.718;2023-05-16T09:00:48;10.73;;;6.43;;
25391;SDS011;13329;48.402;11.718;2023-05-16T09:03:14;8.87;;;6.20;;
25391;SDS011;13329;48.402;11.718;2023-05-16T09:05:39;9.18;;;6.18;;
25391;SDS011;13329;48.402;11.718;2023-05-16T09:08:05;8.23;;;5.70;;
25391;SDS011;13329;48.402;11.718;2023-05-16T09:10:30;9.55;;;6.68;;
25391;SDS011;13329;48.402;11.718;2023-05-16T09:12:55;9.40;;;5.90;;
25391;SDS011;13329;48.402;11.718;2023-05-16T09:15:20;10.10;;;6.23;;
25391;SDS011;13329;48.402;11.718;2023-05-16T09:17:46;13.73;;;6.93;;
25391;SDS011;13329;48.402;11.718;2023-05-16T09:20:13;10.02;;;6.00;;
25391;SDS011;13329;48.402;11.718;2023-05-16T09:22:38;10.77;;;6.85;;
25391;SDS011;13329;48.402;11.718;2023-05-16T09:25:04;11.35;;;6.50;;
25391;SDS011;13329;48.402;11.718;2023-05-16T09:27:30;11.90;;;6.90;;
25391;SDS011;13329;48.402;11.718;2023-05-16T09:29:56;15.80;;;6.82;;
25391;SDS011;13329;48.402;11.718;2023-05-16T09:32:22;10.48;;;6.75;;
25391;SDS011;13329;48.402;11.718;2023-05-16T09:34:48;10.35;;;6.93;;
25391;SDS011;13329;48.402;11.718;2023-05-16T09:37:22;12.05;;;7.50;;
25391;SDS011;13329;48.402;11.718;2023-05-16T09:39:51;10.80;;;6.85;;
25391;SDS011;13329;48.402;11.718;2023-05-16T09:42:17;14.68;;;7.50;;
25391;SDS011;13329;48.402;11.718;2023-05-16T09:44:46;9.95;;;6.88;;
25391;SDS011;13329;48.402;11.718;2023-05-16T09:47:14;12.25;;;6.88;;
25391;SDS011;13329;48.402;11.718;2023-05-16T09:49:40;13.73;;;7.78;;
25391;SDS011;13329;48.402;11.718;2023-05-16T09:52:05;14.32;;;7.63;;
25391;SDS011;13329;48.402;11.718;2023-05-16T09:54:31;12.60;;;7.72;;
25391;SDS011;13329;48.402;11.718;2023-05-16T09:56:57;12.35;;;7.38;;
25391;SDS011;13329;48.402;11.718;2023-05-16T09:59:22;12.15;;;7.65;;
25391;SDS011;13329;48.402;11.718;2023-05-16T10:01:47;10.30;;;6.87;;
25391;SDS011;13329;48.402;11.718;2023-05-16T10:04:12;11.10;;;7.50;;
25391;SDS011;13329;48.402;11.718;2023-05-16T10:06:40;12.10;;;7.97;;
25391;SDS011;13329;48.402;11.718;2023-05-16T10:09:06;11.98;;;7.90;;
25391;SDS011;13329;48.402;11.718;2023-05-16T10:11:31;14.60;;;7.82;;
25391;SDS011;13329;48.402;11.718;2023-05-16T10:13:57;15.13;;;7.78;;
25391;SDS011;13329;48.402;11.718;2023-05-16T10:16:22;15.60;;;8.23;;
25391;SDS011;13329;48.402;11.718;2023-05-16T10:18:48;12.63;;;8.00;;
25391;SDS011;13329;48.402;11.718;2023-05-16T10:21:15;12.52;;;7.95;;
25391;SDS011;13329;48.402;11.718;2023-05-16T10:23:42;12.95;;;7.68;;
25391;SDS011;13329;48.402;11.718;2023-05-16T10:26:08;11.77;;;7.70;;
25391;SDS011;13329;48.402;11.718;2023-05-16T10:28:34;11.85;;;7.70;;
25391;SDS011;13329;48.402;11.718;2023-05-16T10:31:00;11.85;;;8.00;;
25391;SDS011;13329;48.402;11.718;2023-05-16T10:33:27;14.27;;;8.38;;
25391;SDS011;13329;48.402;11.718;2023-05-16T10:35:52;15.15;;;8.60;;
25391;SDS011;13329;48.402;11.718;2023-05-16T10:38:17;14.93;;;8.05;;
25391;SDS011;13329;48.402;11.718;2023-05-16T10:40:43;15.98;;;9.15;;
25391;SDS011;13329;48.402;11.718;2023-05-16T10:43:09;13.00;;;8.25;;
25391;SDS011;13329;48.402;11.718;2023-05-16T10:45:38;13.15;;;8.23;;
25391;SDS011;13329;48.402;11.718;2023-05-16T10:48:04;13.95;;;8.60;;
25391;SDS011;13329;48.402;11.718;2023-05-16T10:53:12;11.63;;;7.60;;
25391;SDS011;13329;48.402;11.718;2023-05-16T10:55:43;12.82;;;8.38;;
25391;SDS011;13329;48.402;11.718;2023-05-16T10:58:08;15.18;;;7.95;;
25391;SDS011;13329;48.402;11.718;2023-05-16T11:00:33;16.97;;;9.27;;
25391;SDS011;13329;48.402;11.718;2023-05-16T11:03:05;12.13;;;8.20;;
25391;SDS011;13329;48.402;11.718;2023-05-16T11:05:43;15.57;;;8.25;;
25391;SDS011;13329;48.402;11.718;2023-05-16T11:08:15;15.13;;;8.38;;
25391;SDS011;13329;48.402;11.718;2023-05-16T11:10:40;12.50;;;8.20;;
25391;SDS011;13329;48.402;11.718;2023-05-16T11:13:08;13.73;;;8.00;;
25391;SDS011;13329;48.402;11.718;2023-05-16T11:15:33;13.18;;;8.23;;
25391;SDS011;13329;48.402;11.718;2023-05-16T11:18:05;11.75;;;8.15;;
25391;SDS011;13329;48.402;11.718;2023-05-16T11:20:32;15.20;;;8.27;;
25391;SDS011;13329;48.402;11.718;2023-05-16T11:25:42;10.15;;;6.95;;
25391;SDS011;13329;48.402;11.718;2023-05-16T11:28:09;13.63;;;7.07;;
25391;SDS011;13329;48.402;11.718;2023-05-16T11:30:35;14.25;;;7.45;;
25391;SDS011;13329;48.402;11.718;2023-05-16T11:33:00;10.43;;;6.97;;
25391;SDS011;13329;48.402;11.718;2023-05-16T11:35:25;10.53;;;7.23;;
25391;SDS011;13329;48.402;11.718;2023-05-16T11:37:51;9.95;;;7.18;;
25391;SDS011;13329;48.402;11.718;2023-05-16T11:40:16;11.83;;;6.73;;
25391;SDS011;13329;48.402;11.718;2023-05-16T11:42:42;10.90;;;7.03;;
25391;SDS011;13329;48.402;11.718;2023-05-16T11:45:11;10.18;;;6.97;;
25391;SDS011;13329;48.402;11.718;2023-05-16T11:47:38;11.90;;;7.40;;
25391;SDS011;13329;48.402;11.718;2023-05-16T11:50:14;12.73;;;7.70;;
25391;SDS011;13329;48.402;11.718;2023-05-16T11:52:41;10.35;;;7.68;;
25391;SDS011;13329;48.402;11.718;2023-05-16T11:55:07;10.18;;;6.85;;
25391;SDS011;13329;48.402;11.718;2023-05-16T11:57:35;12.25;;;8.30;;
25391;SDS011;13329;48.402;11.718;2023-05-16T12:00:01;12.60;;;7.38;;
25391;SDS011;13329;48.402;11.718;2023-05-16T12:02:28;10.27;;;7.03;;
25391;SDS011;13329;48.402;11.718;2023-05-16T12:04:53;10.35;;;7.50;;
25391;SDS011;13329;48.402;11.718;2023-05-16T12:07:18;10.90;;;7.15;;
25391;SDS011;13329;48.402;11.718;2023-05-16T12:09:50;11.30;;;7.60;;
25391;SDS011;13329;48.402;11.718;2023-05-16T12:12:17;11.02;;;7.68;;
25391;SDS011;13329;48.402;11.718;2023-05-16T12:14:44;10.30;;;7.15;;
25391;SDS011;13329;48.402;11.718;2023-05-16T12:17:09;12.23;;;7.60;;
25391;SDS011;13329;48.402;11.718;2023-05-16T12:19:34;11.77;;;6.80;;
25391;SDS011;13329;48.402;11.718;2023-05-16T12:22:00;10.05;;;6.78;;
25391;SDS011;13329;48.402;11.718;2023-05-16T12:24:28;13.00;;;7.30;;
25391;SDS011;13329;48.402;11.718;2023-05-16T12:26:53;9.93;;;6.95;;
25391;SDS011;13329;48.402;11.718;2023-05-16T12:29:21;13.55;;;6.88;;
25391;SDS011;13329;48.402;11.718;2023-05-16T12:31:51;16.27;;;7.85;;
25391;SDS011;13329;48.402;11.718;2023-05-16T12:34:19;14.85;;;8.18;;
25391;SDS011;13329;48.402;11.718;2023-05-16T12:36:45;15.48;;;8.27;;
25391;SDS011;13329;48.402;11.718;2023-05-16T12:39:14;14.98;;;8.15;;
25391;SDS011;13329;48.402;11.718;2023-05-16T12:41:40;12.20;;;8.68;;
25391;SDS011;13329;48.402;11.718;2023-05-16T12:44:12;13.65;;;7.88;;
25391;SDS011;13329;48.402;11.718;2023-05-16T12:46:42;11.45;;;7.25;;
25391;SDS011;13329;48.402;11.718;2023-05-16T12:49:07;15.18;;;7.43;;
25391;SDS011;13329;48.402;11.718;2023-05-16T12:51:33;6.82;;;4.68;;
25391;SDS011;13329;48.402;11.718;2023-05-16T12:54:05;7.60;;;4.10;;
25391;SDS011;13329;48.402;11.718;2023-05-16T12:56:31;18.65;;;5.03;;
25391;SDS011;13329;48.402;11.718;2023-05-16T12:58:56;8.33;;;5.17;;
25391;SDS011;13329;48.402;11.718;2023-05-16T13:01:21;12.10;;;5.30;;
25391;SDS011;13329;48.402;11.718;2023-05-16T13:03:46;9.13;;;5.83;;
25391;SDS011;13329;48.402;11.718;2023-05-16T13:06:12;11.17;;;6.63;;
25391;SDS011;13329;48.402;11.718;2023-05-16T13:08:37;10.90;;;5.87;;
25391;SDS011;13329;48.402;11.718;2023-05-16T13:11:02;11.90;;;6.60;;
25391;SDS011;13329;48.402;11.718;2023-05-16T13:13:27;10.13;;;6.07;;
25391;SDS011;13329;48.402;11.718;2023-05-16T13:15:52;10.63;;;6.75;;
25391;SDS011;13329;48.402;11.718;2023-05-16T13:18:17;11.30;;;6.47;;
25391;SDS011;13329;48.402;11.718;2023-05-16T13:20:43;14.77;;;6.43;;
25391;SDS011;13329;48.402;11.718;2023-05-16T13:23:08;10.68;;;5.78;;
25391;SDS011;13329;48.402;11.718;2023-05-16T13:25:33;10.63;;;5.47;;
25391;SDS011;13329;48.402;11.718;2023-05-16T13:27:58;9.37;;;5.43;;
25391;SDS011;13329;48.402;11.718;2023-05-16T13:30:24;10.05;;;5.15;;
25391;SDS011;13329;48.402;11.718;2023-05-16T13:32:49;11.70;;;6.15;;
25391;SDS011;13329;48.402;11.718;2023-05-16T13:35:16;10.00;;;5.60;;
25391;SDS011;13329;48.402;11.718;2023-05-16T13:37:41;10.70;;;5.72;;
25391;SDS011;13329;48.402;11.718;2023-05-16T13:40:06;8.83;;;5.30;;
25391;SDS011;13329;48.402;11.718;2023-05-16T13:42:35;10.40;;;5.93;;
25391;SDS011;13329;48.402;11.718;2023-05-16T13:45:01;10.07;;;6.20;;
25391;SDS011;13329;48.402;11.718;2023-05-16T13:47:26;9.35;;;5.70;;
25391;SDS011;13329;48.402;11.718;2023-05-16T13:49:51;10.90;;;5.83;;
25391;SDS011;13329;48.402;11.718;2023-05-16T13:52:16;8.98;;;5.70;;
25391;SDS011;13329;48.402;11.718;2023-05-16T13:54:41;8.63;;;5.53;;
25391;SDS011;13329;48.402;11.718;2023-05-16T13:57:07;9.20;;;5.40;;
25391;SDS011;13329;48.402;11.718;2023-05-16T13:59:32;10.27;;;5.43;;
25391;SDS011;13329;48.402;11.718;2023-05-16T14:01:57;11.83;;;5.57;;
25391;SDS011;13329;48.402;11.718;2023-05-16T14:04:22;9.20;;;5.53;;
25391;SDS011;13329;48.402;11.718;2023-05-16T14:06:48;8.50;;;5.30;;
25391;SDS011;13329;48.402;11.718;2023-05-16T14:09:13;10.15;;;5.60;;
25391;SDS011;13329;48.402;11.718;2023-05-16T14:11:39;9.27;;;5.47;;
25391;SDS011;13329;48.402;11.718;2023-05-16T14:14:04;8.27;;;5.13;;
25391;SDS011;13329;48.402;11.718;2023-05-16T14:16:29;7.57;;;5.17;;
25391;SDS011;13329;48.402;11.718;2023-05-16T14:18:55;9.00;;;5.80;;
25391;SDS011;13329;48.402;11.718;2023-05-16T14:21:20;7.57;;;4.82;;
25391;SDS011;13329;48.402;11.718;2023-05-16T14:23:45;8.43;;;5.53;;
25391;SDS011;13329;48.402;11.718;2023-05-16T14:26:11;7.85;;;4.97;;
25391;SDS011;13329;48.402;11.718;2023-05-16T14:28:36;9.77;;;5.90;;
25391;SDS011;13329;48.402;11.718;2023-05-16T14:31:01;8.10;;;5.13;;
25391;SDS011;13329;48.402;11.718;2023-05-16T14:33:26;7.78;;;4.93;;
25391;SDS011;13329;48.402;11.718;2023-05-16T14:35:51;7.80;;;4.87;;